Time;durP1;ratioP1;P1;durP2;ratioP2;P2;SDS_P1;SDS_P2;PMS_P1;PMS_P2;Temp;Humidity;BMP_temperature;BMP_pressure;BME280_temperature;BME280_humidity;BME280_pressure;Samples;Min_cycle;Max_cycle;Signal;HPM_P1;HPM_P2
2021/06/20 10:26:24;;;;;;;16.27;10.00;;;24.70;99.90;;;;;;5002817;23;20280;-72
2021/06/20 10:28:51;;;;;;;12.27;10.25;;;24.80;99.90;;;;;;4963073;28;20018;-73
2021/06/20 10:31:17;;;;;;;10.25;9.18;;;24.90;99.90;;;;;;4973986;28;20102;-70
2021/06/20 10:33:42;;;;;;;13.10;9.82;;;24.90;99.90;;;;;;4957908;28;20523;-75
2021/06/20 10:36:13;;;;;;;10.05;9.05;;;25.00;99.20;;;;;;4975408;28;20031;-72
2021/06/20 10:38:44;;;;;;;10.68;7.38;;;24.90;99.30;;;;;;4974999;28;20121;-75
2021/06/20 10:41:28;;;;;;;10.07;8.25;;;24.80;99.80;;;;;;4957054;28;20048;-73
2021/06/20 10:44:00;;;;;;;8.90;8.00;;;24.70;98.80;;;;;;4963840;28;20042;-73
2021/06/20 10:46:26;;;;;;;9.13;8.07;;;24.60;98.70;;;;;;4957915;28;20067;-68
2021/06/20 10:48:52;;;;;;;10.35;8.05;;;24.60;99.00;;;;;;4974417;28;20031;-71
2021/06/20 10:51:21;;;;;;;8.93;7.40;;;24.60;98.90;;;;;;4975327;28;20034;-76
2021/06/20 10:53:47;;;;;;;10.25;8.38;;;24.70;98.70;;;;;;4957199;28;20037;-71
2021/06/20 10:56:39;;;;;;;9.20;8.30;;;24.90;98.20;;;;;;4974893;28;20031;-71
2021/06/20 10:59:04;;;;;;;7.85;6.82;;;25.20;97.80;;;;;;4946851;28;20044;-72
2021/06/20 11:01:40;;;;;;;8.02;7.22;;;25.50;97.30;;;;;;4961957;28;20018;-72
2021/06/20 11:04:06;;;;;;;9.32;7.72;;;25.90;97.00;;;;;;4954439;28;20054;-73
2021/06/20 11:06:32;;;;;;;10.23;8.23;;;26.30;96.50;;;;;;4975591;28;20058;-72
2021/06/20 11:09:01;;;;;;;7.47;6.68;;;26.40;95.70;;;;;;4974766;28;20379;-72
2021/06/20 11:11:27;;;;;;;8.27;7.45;;;26.10;96.10;;;;;;4957535;28;20391;-82
2021/06/20 11:13:56;;;;;;;7.90;7.10;;;25.80;96.30;;;;;;4956951;28;20050;-81
2021/06/20 11:16:40;;;;;;;10.25;8.88;;;25.30;95.90;;;;;;4958210;28;20063;-85
2021/06/20 11:19:09;;;;;;;8.82;7.85;;;25.00;95.80;;;;;;4958443;28;20026;-84
2021/06/20 11:21:53;;;;;;;8.05;7.25;;;25.00;96.30;;;;;;4958004;28;20361;-83
2021/06/20 11:24:28;;;;;;;9.45;8.38;;;25.20;96.20;;;;;;4975694;28;20054;-82
2021/06/20 11:27:06;;;;;;;8.52;7.55;;;25.40;95.90;;;;;;4965787;28;20051;-76
2021/06/20 11:29:41;;;;;;;8.05;7.20;;;25.60;96.30;;;;;;4955532;29;20019;-76
2021/06/20 11:32:14;;;;;;;10.20;7.25;;;25.90;95.70;;;;;;4955034;29;20114;-75
2021/06/20 11:34:51;;;;;;;6.90;6.22;;;26.00;94.50;;;;;;4954971;29;20042;-76
2021/06/20 11:37:46;;;;;;;8.48;7.13;;;25.90;94.20;;;;;;4955489;29;20498;-74
2021/06/20 11:40:24;;;;;;;7.38;5.22;;;25.80;94.40;;;;;;4948971;28;20043;-77
2021/06/20 11:42:52;;;;;;;7.03;6.28;;;25.90;95.60;;;;;;4974614;28;20026;-70
2021/06/20 11:45:23;;;;;;;8.40;6.47;;;26.20;95.00;;;;;;4957075;28;20677;-80
2021/06/20 11:47:55;;;;;;;8.30;7.50;;;26.50;94.40;;;;;;4961361;28;20383;-81
2021/06/20 11:50:21;;;;;;;10.75;8.45;;;26.50;93.70;;;;;;4956538;28;20034;-79
2021/06/20 11:53:00;;;;;;;9.52;8.23;;;26.30;93.70;;;;;;4957088;28;20034;-78
2021/06/20 11:55:29;;;;;;;9.10;8.10;;;26.00;94.30;;;;;;4975380;28;20046;-77
2021/06/20 11:57:55;;;;;;;8.70;7.80;;;26.10;94.40;;;;;;4974316;28;20026;-76
2021/06/20 12:00:26;;;;;;;9.35;8.43;;;26.30;94.40;;;;;;4957307;28;20387;-79
2021/06/20 12:03:01;;;;;;;10.40;8.48;;;26.40;93.40;;;;;;4956388;28;20031;-75
2021/06/20 12:05:27;;;;;;;9.57;7.65;;;26.20;93.40;;;;;;4974605;28;20018;-78
2021/06/20 12:07:57;;;;;;;8.05;7.20;;;26.20;93.60;;;;;;4974406;28;20113;-78
2021/06/20 12:10:22;;;;;;;8.20;6.95;;;26.20;93.70;;;;;;4974886;28;20459;-77
2021/06/20 12:12:58;;;;;;;7.85;7.05;;;26.30;92.90;;;;;;4957008;28;20037;-73
2021/06/20 12:15:23;;;;;;;6.85;6.15;;;26.50;93.20;;;;;;4956357;28;20475;-73
2021/06/20 12:17:50;;;;;;;6.60;5.90;;;26.50;93.20;;;;;;4973750;28;20074;-70
2021/06/20 12:20:38;;;;;;;6.18;5.57;;;26.50;93.20;;;;;;4968346;28;20015;-69
2021/06/20 12:23:06;;;;;;;5.57;5.07;;;26.40;92.70;;;;;;4943876;28;20023;-72
2021/06/20 12:25:49;;;;;;;7.38;5.38;;;26.40;92.40;;;;;;4972698;28;20105;-75
2021/06/20 12:28:16;;;;;;;5.47;4.95;;;26.30;92.20;;;;;;4955097;28;20077;-71
2021/06/20 12:30:43;;;;;;;6.13;5.45;;;26.40;92.10;;;;;;4970487;28;20470;-74
2021/06/20 12:33:13;;;;;;;6.30;5.15;;;26.50;92.50;;;;;;4973753;28;20042;-74
2021/06/20 12:35:39;;;;;;;6.60;5.07;;;26.60;91.80;;;;;;4956555;28;20029;-72
2021/06/20 12:38:16;;;;;;;5.43;4.82;;;26.80;91.40;;;;;;4974167;28;20089;-72
2021/06/20 12:40:43;;;;;;;6.15;5.20;;;26.80;91.80;;;;;;4956402;28;20027;-72
2021/06/20 12:43:16;;;;;;;5.63;4.93;;;26.60;91.80;;;;;;4956460;28;20085;-72
2021/06/20 12:45:42;;;;;;;5.18;4.68;;;26.10;90.90;;;;;;4954400;29;20546;-73
2021/06/20 12:48:25;;;;;;;6.05;5.20;;;25.90;92.20;;;;;;4954421;29;20027;-72
2021/06/20 12:50:56;;;;;;;6.82;6.15;;;25.80;91.80;;;;;;4953282;29;20034;-71
2021/06/20 12:53:32;;;;;;;6.15;5.57;;;25.90;92.00;;;;;;4953706;29;20031;-72
2021/06/20 12:55:59;;;;;;;5.68;4.72;;;25.90;91.30;;;;;;4937475;29;20062;-71
2021/06/20 12:58:24;;;;;;;6.20;4.53;;;26.00;92.40;;;;;;4950058;28;20422;-74
2021/06/20 13:00:58;;;;;;;4.57;4.05;;;26.40;92.50;;;;;;4955799;28;20078;-71
2021/06/20 13:03:26;;;;;;;5.63;4.40;;;26.60;92.10;;;;;;4956383;28;20147;-73
2021/06/20 13:05:52;;;;;;;4.25;3.85;;;26.80;92.00;;;;;;4976142;28;20042;-73
2021/06/20 13:08:26;;;;;;;5.50;5.00;;;26.90;92.20;;;;;;4959855;28;20114;-81
2021/06/20 13:10:51;;;;;;;4.63;4.22;;;26.80;91.30;;;;;;4978114;28;20030;-75
2021/06/20 13:13:17;;;;;;;5.88;4.68;;;26.40;91.90;;;;;;4977668;28;20181;-76
2021/06/20 13:15:43;;;;;;;4.82;4.43;;;26.20;91.90;;;;;;4976925;28;20031;-72
2021/06/20 13:18:08;;;;;;;5.38;4.65;;;25.90;92.90;;;;;;4977313;28;20031;-79
2021/06/20 13:20:34;;;;;;;4.90;4.50;;;25.80;93.50;;;;;;4969261;28;20027;-71
2021/06/20 13:23:02;;;;;;;5.65;4.68;;;25.80;93.10;;;;;;4957822;29;20028;-75
2021/06/20 13:25:27;;;;;;;7.10;4.38;;;25.90;93.00;;;;;;4977343;28;20043;-75
2021/06/20 13:27:54;;;;;;;5.00;4.40;;;25.90;92.80;;;;;;4958742;28;20089;-74
2021/06/20 13:30:21;;;;;;;6.55;4.88;;;25.90;93.10;;;;;;4977500;28;20097;-75
2021/06/20 13:32:47;;;;;;;5.35;4.85;;;25.90;91.80;;;;;;4977717;28;20038;-76
2021/06/20 13:35:14;;;;;;;4.82;4.32;;;25.80;91.90;;;;;;4977103;28;20749;-77
2021/06/20 13:37:41;;;;;;;7.50;4.78;;;25.70;92.10;;;;;;4977170;28;20038;-79
2021/06/20 13:40:08;;;;;;;4.97;4.45;;;25.70;92.10;;;;;;4977885;28;20011;-80
2021/06/20 13:42:35;;;;;;;6.03;5.43;;;25.80;92.50;;;;;;4959721;28;20054;-76
2021/06/20 13:45:01;;;;;;;6.07;5.45;;;25.80;92.10;;;;;;4976976;28;20034;-72
2021/06/20 13:47:26;;;;;;;5.15;4.65;;;25.70;91.90;;;;;;4976815;28;20483;-72
2021/06/20 13:49:52;;;;;;;6.53;5.93;;;25.60;92.60;;;;;;4976800;28;20062;-75
2021/06/20 13:52:18;;;;;;;5.05;4.45;;;25.70;92.60;;;;;;4960030;28;20046;-75
2021/06/20 13:54:43;;;;;;;6.05;5.05;;;25.80;92.80;;;;;;4958821;28;20471;-78
2021/06/20 13:57:09;;;;;;;5.90;5.30;;;25.90;92.60;;;;;;4959223;28;20129;-75
2021/06/20 13:59:35;;;;;;;6.28;5.68;;;26.00;92.00;;;;;;4960188;28;20030;-78
2021/06/20 14:02:01;;;;;;;6.03;5.43;;;26.10;91.10;;;;;;4977124;28;20426;-82
2021/06/20 14:04:26;;;;;;;6.65;5.25;;;26.20;91.40;;;;;;4976577;28;20031;-77
2021/06/20 14:06:52;;;;;;;6.15;5.47;;;26.20;91.90;;;;;;4959679;28;20030;-80
2021/06/20 14:09:18;;;;;;;5.85;5.25;;;26.10;91.80;;;;;;4960040;28;20038;-75
2021/06/20 14:11:45;;;;;;;5.80;5.20;;;26.20;92.10;;;;;;4976928;28;20054;-82
2021/06/20 14:14:11;;;;;;;5.32;4.82;;;26.50;91.30;;;;;;4959559;28;20074;-77
2021/06/20 14:16:37;;;;;;;5.40;4.90;;;26.60;90.40;;;;;;4975136;28;20023;-75
2021/06/20 14:19:02;;;;;;;5.95;5.35;;;26.60;90.20;;;;;;4975931;28;20089;-77
2021/06/20 14:21:28;;;;;;;4.57;4.18;;;26.60;90.60;;;;;;4961014;28;20095;-76
2021/06/20 14:23:54;;;;;;;5.43;3.42;;;26.80;90.30;;;;;;4957796;29;20034;-77
2021/06/20 14:26:20;;;;;;;5.15;3.78;;;26.90;90.40;;;;;;4938687;29;20050;-77
2021/06/20 14:28:47;;;;;;;5.38;3.65;;;26.90;90.20;;;;;;4955334;28;20030;-81
2021/06/20 14:31:13;;;;;;;5.18;3.97;;;26.90;89.30;;;;;;4957903;28;20113;-80
2021/06/20 14:33:39;;;;;;;3.55;3.25;;;26.90;89.50;;;;;;4958584;28;20178;-84
2021/06/20 14:36:08;;;;;;;6.80;4.78;;;26.80;89.90;;;;;;4976600;28;20125;-73
2021/06/20 14:38:34;;;;;;;7.22;5.95;;;26.80;88.90;;;;;;4975198;28;20494;-75
2021/06/20 14:41:01;;;;;;;5.68;5.00;;;26.90;89.00;;;;;;4976622;28;20050;-71
2021/06/20 14:43:27;;;;;;;8.70;6.30;;;26.80;90.20;;;;;;4975286;28;20046;-74
2021/06/20 14:45:53;;;;;;;6.53;5.20;;;26.80;89.30;;;;;;4975532;28;20141;-73
2021/06/20 14:48:19;;;;;;;5.43;4.70;;;26.80;89.40;;;;;;4955921;28;20023;-74
2021/06/20 14:50:45;;;;;;;3.97;3.40;;;26.80;90.20;;;;;;4957179;29;20034;-82
2021/06/20 14:53:10;;;;;;;3.90;3.00;;;26.80;89.30;;;;;;4955628;29;20391;-86
2021/06/20 14:55:36;;;;;;;10.48;7.50;;;27.00;89.50;;;;;;4956711;28;20035;-75
2021/06/20 14:58:01;;;;;;;4.25;3.85;;;27.10;87.40;;;;;;4976822;28;20026;-87
2021/06/20 15:00:27;;;;;;;5.13;3.55;;;27.30;88.90;;;;;;4975859;28;20034;-75
2021/06/20 15:02:52;;;;;;;3.47;3.17;;;27.40;86.30;;;;;;4976102;28;20019;-78
2021/06/20 15:05:18;;;;;;;4.18;3.10;;;27.40;86.50;;;;;;4975972;28;20058;-82
2021/06/20 15:07:44;;;;;;;3.92;3.10;;;27.30;84.70;;;;;;4975357;28;20023;-79
2021/06/20 15:10:10;;;;;;;3.65;3.17;;;27.30;84.70;;;;;;4975644;28;20027;-79
2021/06/20 15:12:36;;;;;;;4.25;3.85;;;27.30;85.10;;;;;;4958310;28;20026;-85
2021/06/20 15:15:03;;;;;;;6.05;5.45;;;27.30;85.60;;;;;;4975683;28;20044;-80
2021/06/20 15:17:28;;;;;;;12.13;9.75;;;27.30;85.30;;;;;;4975263;28;20471;-84
2021/06/20 15:19:54;;;;;;;9.15;7.85;;;27.40;85.40;;;;;;4975769;28;20033;-80
2021/06/20 15:22:19;;;;;;;5.03;4.53;;;27.50;86.10;;;;;;4958269;28;20022;-86
2021/06/20 15:24:45;;;;;;;8.20;3.95;;;27.80;86.30;;;;;;4958560;28;20019;-79
2021/06/20 15:27:11;;;;;;;3.80;3.20;;;27.90;86.30;;;;;;4958293;28;20092;-76
2021/06/20 15:29:36;;;;;;;5.55;3.67;;;27.80;86.20;;;;;;4974358;28;20019;-84
2021/06/20 15:32:17;;;;;;;4.10;3.70;;;27.60;84.60;;;;;;4965010;28;20032;-75
2021/06/20 15:34:43;;;;;;;5.72;3.72;;;27.30;86.10;;;;;;4972022;28;20041;-74
2021/06/20 15:37:12;;;;;;;5.65;3.97;;;27.20;86.70;;;;;;4969776;28;20031;-81
2021/06/20 15:39:38;;;;;;;3.50;3.20;;;27.30;84.90;;;;;;4955090;29;20361;-78
2021/06/20 15:42:06;;;;;;;4.78;4.32;;;27.20;87.10;;;;;;4957252;29;20035;-88
2021/06/20 15:44:33;;;;;;;6.53;5.43;;;27.30;85.80;;;;;;4956969;29;20038;-81
2021/06/20 15:46:59;;;;;;;6.07;4.63;;;27.20;85.00;;;;;;4955809;29;20027;-86
2021/06/20 15:49:25;;;;;;;5.25;4.75;;;27.10;84.30;;;;;;4959000;28;20042;-91
2021/06/20 15:51:51;;;;;;;6.32;5.22;;;27.00;84.20;;;;;;4962900;28;20025;-87
2021/06/20 15:54:16;;;;;;;3.55;3.25;;;28.00;82.00;;;;;;4958655;28;20042;-85
2021/06/20 15:56:43;;;;;;;5.25;4.22;;;28.50;78.50;;;;;;4959346;28;20095;-87
2021/06/20 15:59:08;;;;;;;3.88;3.53;;;29.00;77.80;;;;;;4960602;28;20031;-82
2021/06/20 16:02:03;;;;;;;4.50;3.92;;;29.40;75.80;;;;;;4962390;28;20099;-92
2021/06/20 16:04:31;;;;;;;3.28;2.97;;;29.30;74.80;;;;;;4935300;29;20027;-79
2021/06/20 16:10:31;;;;;;;4.82;4.38;;;28.30;76.10;;;;;;4975369;28;20089;-85
2021/06/20 16:12:57;;;;;;;9.27;6.65;;;27.80;76.80;;;;;;4941358;28;20039;-84
2021/06/20 16:16:04;;;;;;;12.68;6.80;;;27.70;76.20;;;;;;4957488;28;20547;-89
2021/06/20 16:18:37;;;;;;;6.78;4.63;;;27.70;78.50;;;;;;4899822;29;20027;-91
2021/06/20 16:21:03;;;;;;;3.88;3.20;;;28.10;79.10;;;;;;4917691;23;20059;-92
2021/06/20 16:23:30;;;;;;;2.60;2.40;;;29.90;74.40;;;;;;4958041;28;20023;-82
2021/06/20 16:25:55;;;;;;;2.70;2.50;;;31.10;73.10;;;;;;4925381;28;20105;-83
2021/06/20 16:28:22;;;;;;;3.38;2.67;;;31.30;72.40;;;;;;4956740;28;20467;-74
2021/06/20 16:30:48;;;;;;;3.33;2.47;;;32.80;70.50;;;;;;4970379;28;20034;-73
2021/06/20 16:33:14;;;;;;;2.95;2.45;;;33.50;68.30;;;;;;4970526;28;20517;-74
2021/06/20 16:35:40;;;;;;;5.15;2.65;;;34.10;64.10;;;;;;4971020;28;20106;-83
2021/06/20 16:38:06;;;;;;;3.03;2.70;;;34.60;60.40;;;;;;4970430;28;20031;-80
2021/06/20 16:40:32;;;;;;;3.15;2.85;;;34.20;60.50;;;;;;4970270;28;20030;-83
2021/06/20 16:42:57;;;;;;;2.60;2.40;;;33.30;59.40;;;;;;4971515;28;20038;-78
2021/06/20 16:45:24;;;;;;;2.47;2.15;;;32.20;62.30;;;;;;4954938;28;20015;-75
2021/06/20 16:47:50;;;;;;;1.75;1.60;;;31.30;67.40;;;;;;4960379;28;20039;-73
2021/06/20 16:50:16;;;;;;;3.60;2.00;;;30.50;69.80;;;;;;4970468;28;20041;-73
2021/06/20 16:52:42;;;;;;;2.20;2.00;;;30.20;72.10;;;;;;4972424;28;20057;-73
2021/06/20 16:55:08;;;;;;;1.75;1.65;;;30.80;67.60;;;;;;4975685;28;20049;-73
2021/06/20 16:57:34;;;;;;;5.07;2.40;;;31.50;69.30;;;;;;4958199;28;20023;-76
2021/06/20 17:00:00;;;;;;;3.40;1.90;;;32.80;68.40;;;;;;4971303;28;20407;-73
2021/06/20 17:02:27;;;;;;;2.13;1.98;;;34.00;66.00;;;;;;4954312;28;20029;-78
2021/06/20 17:04:53;;;;;;;3.17;1.75;;;33.50;66.20;;;;;;4972923;28;20023;-72
2021/06/20 17:07:20;;;;;;;4.00;3.40;;;32.50;66.60;;;;;;4955268;28;20509;-75
2021/06/20 17:09:46;;;;;;;4.95;4.05;;;31.10;66.70;;;;;;4954960;28;20039;-86
2021/06/20 17:12:12;;;;;;;5.38;3.90;;;29.70;69.80;;;;;;4973898;28;20081;-73
2021/06/20 17:14:38;;;;;;;6.07;4.53;;;28.60;74.00;;;;;;4955837;28;20027;-75
2021/06/20 17:17:10;;;;;;;7.20;4.82;;;27.80;77.10;;;;;;4974584;28;20027;-73
2021/06/20 17:19:36;;;;;;;9.85;5.07;;;27.30;79.60;;;;;;4973796;28;20038;-72
2021/06/20 17:22:03;;;;;;;5.05;4.35;;;26.80;81.30;;;;;;4972130;28;20050;-80
2021/06/20 17:24:28;;;;;;;5.90;4.30;;;26.50;83.80;;;;;;4971016;28;20058;-76
2021/06/20 17:26:54;;;;;;;5.28;4.18;;;26.10;85.80;;;;;;4953195;28;20054;-74
2021/06/20 17:29:20;;;;;;;4.50;4.10;;;25.90;87.60;;;;;;4969499;28;20031;-81
2021/06/20 17:31:46;;;;;;;6.45;5.05;;;25.70;88.70;;;;;;4952796;28;20479;-74
2021/06/20 17:34:12;;;;;;;4.35;3.80;;;25.40;90.00;;;;;;4969369;28;20035;-75
2021/06/20 17:36:37;;;;;;;4.63;3.92;;;25.10;91.20;;;;;;4970353;28;20023;-76
2021/06/20 17:39:06;;;;;;;6.38;4.72;;;25.00;91.70;;;;;;4970063;28;20042;-75
2021/06/20 17:41:32;;;;;;;4.75;4.35;;;24.70;92.30;;;;;;4969805;28;20023;-82
2021/06/20 17:43:58;;;;;;;4.43;4.03;;;24.60;92.80;;;;;;4970223;28;20042;-72
2021/06/20 17:46:24;;;;;;;5.18;4.05;;;24.60;93.10;;;;;;4970200;28;20038;-75
2021/06/20 17:48:51;;;;;;;6.43;4.50;;;25.10;92.80;;;;;;4952287;28;20050;-76
2021/06/20 17:51:17;;;;;;;8.73;4.25;;;25.90;91.70;;;;;;4971337;28;20471;-75
2021/06/20 17:53:42;;;;;;;4.85;3.75;;;26.90;90.30;;;;;;4973423;28;20470;-73
2021/06/20 17:56:08;;;;;;;5.13;3.70;;;27.70;87.40;;;;;;4972318;28;20051;-73
2021/06/20 17:58:34;;;;;;;5.55;3.83;;;28.60;84.70;;;;;;4972421;28;20038;-73
2021/06/20 18:00:59;;;;;;;4.72;3.90;;;29.50;79.90;;;;;;4972795;28;20439;-78
2021/06/20 18:03:25;;;;;;;4.45;3.45;;;29.30;79.80;;;;;;4955497;28;20053;-78
2021/06/20 18:05:54;;;;;;;7.13;5.13;;;28.70;81.60;;;;;;4955954;28;20034;-76
2021/06/20 18:08:24;;;;;;;5.20;4.20;;;27.70;82.30;;;;;;4973470;28;20092;-74
2021/06/20 18:10:50;;;;;;;4.80;4.20;;;26.70;85.70;;;;;;4973423;28;20026;-76
2021/06/20 18:13:16;;;;;;;4.90;4.40;;;26.00;88.90;;;;;;4955998;28;20307;-73
2021/06/20 18:15:42;;;;;;;5.40;4.05;;;25.50;90.90;;;;;;4973253;28;20103;-74
2021/06/20 18:18:08;;;;;;;6.13;4.57;;;25.10;91.70;;;;;;4971378;28;20038;-73
2021/06/20 18:20:35;;;;;;;5.28;4.45;;;24.80;92.60;;;;;;4947564;28;20042;-73
2021/06/20 18:23:02;;;;;;;5.78;4.57;;;24.50;93.20;;;;;;4973190;28;20071;-75
2021/06/20 18:25:27;;;;;;;4.25;3.85;;;24.20;93.80;;;;;;4972249;28;20081;-76
2021/06/20 18:27:53;;;;;;;4.97;3.92;;;23.90;94.70;;;;;;4972731;28;20042;-73
2021/06/20 18:30:20;;;;;;;5.85;4.45;;;23.70;95.60;;;;;;4971205;28;20058;-72
2021/06/20 18:32:45;;;;;;;3.83;3.47;;;23.50;96.20;;;;;;4972595;28;20672;-74
2021/06/20 18:35:11;;;;;;;4.55;3.78;;;23.30;96.80;;;;;;4971531;28;20042;-73
2021/06/20 18:37:39;;;;;;;5.22;3.85;;;23.20;97.30;;;;;;4954398;28;20498;-72
2021/06/20 18:40:06;;;;;;;4.90;4.40;;;23.10;97.60;;;;;;4971949;28;20101;-73
2021/06/20 18:42:32;;;;;;;6.00;3.83;;;23.10;97.80;;;;;;4972452;28;20026;-73
2021/06/20 18:44:58;;;;;;;5.22;3.78;;;23.10;97.80;;;;;;4971109;28;20577;-74
2021/06/20 18:47:23;;;;;;;7.10;4.05;;;23.10;97.80;;;;;;4971237;28;20089;-73
2021/06/20 18:49:50;;;;;;;6.68;3.60;;;23.00;98.10;;;;;;4955350;28;20023;-73
2021/06/20 18:52:16;;;;;;;4.50;3.45;;;22.90;98.40;;;;;;4954625;28;20031;-76
2021/06/20 18:54:42;;;;;;;4.80;3.83;;;22.80;98.90;;;;;;4973397;28;20057;-78
2021/06/20 18:57:09;;;;;;;5.05;3.75;;;22.60;99.30;;;;;;4955607;28;20031;-75
2021/06/20 18:59:35;;;;;;;4.03;3.30;;;22.50;99.60;;;;;;4973008;28;20102;-75
2021/06/20 19:02:01;;;;;;;5.38;3.70;;;22.40;99.90;;;;;;4973664;28;20510;-82
2021/06/20 19:04:26;;;;;;;5.28;3.67;;;22.20;99.90;;;;;;4955045;28;20038;-72
2021/06/20 19:06:52;;;;;;;5.80;3.63;;;22.10;99.90;;;;;;4972396;28;20395;-77
2021/06/20 19:09:18;;;;;;;5.03;4.07;;;22.00;99.90;;;;;;4956213;28;20486;-73
2021/06/20 19:11:44;;;;;;;4.20;3.50;;;21.90;99.90;;;;;;4972745;28;20101;-76
2021/06/20 19:14:10;;;;;;;6.32;4.10;;;21.80;99.90;;;;;;4971926;28;20440;-80
2021/06/20 19:16:35;;;;;;;5.07;3.65;;;21.80;99.90;;;;;;4972793;28;20038;-74
2021/06/20 19:19:01;;;;;;;4.97;3.55;;;21.70;99.90;;;;;;4964128;28;20035;-78
2021/06/20 19:21:27;;;;;;;5.03;3.42;;;21.70;99.90;;;;;;4971297;28;20399;-78
2021/06/20 19:23:52;;;;;;;5.10;3.50;;;21.70;99.90;;;;;;4954516;28;20038;-77
2021/06/20 19:26:18;;;;;;;4.15;3.33;;;21.70;99.90;;;;;;4954241;28;20041;-77
2021/06/20 19:28:43;;;;;;;7.68;4.25;;;21.70;99.90;;;;;;4954850;28;20478;-76
2021/06/20 19:31:09;;;;;;;5.50;3.50;;;21.60;99.90;;;;;;4972339;28;20033;-74
2021/06/20 19:33:35;;;;;;;6.20;3.88;;;21.60;99.90;;;;;;4976359;28;20086;-76
2021/06/20 19:36:01;;;;;;;5.20;3.58;;;21.50;99.90;;;;;;4976978;28;20019;-74
2021/06/20 19:38:27;;;;;;;5.10;3.53;;;21.50;99.90;;;;;;4972263;28;20410;-74
2021/06/20 19:40:54;;;;;;;5.85;3.75;;;21.50;99.90;;;;;;4971223;28;20475;-78
2021/06/20 19:43:20;;;;;;;5.18;3.58;;;21.40;99.90;;;;;;4953912;28;20062;-81
2021/06/20 19:45:46;;;;;;;7.97;3.58;;;21.30;99.90;;;;;;4972252;28;20057;-76
2021/06/20 19:48:14;;;;;;;5.43;3.50;;;21.30;99.90;;;;;;4971599;28;20062;-73
2021/06/20 19:50:40;;;;;;;5.85;4.22;;;21.20;99.90;;;;;;4969209;28;20086;-72
2021/06/20 19:53:08;;;;;;;5.85;3.55;;;21.20;99.90;;;;;;4934856;29;20070;-72
2021/06/20 19:55:33;;;;;;;4.97;3.65;;;21.10;99.90;;;;;;4950317;29;20030;-73
2021/06/20 19:57:59;;;;;;;4.63;3.42;;;21.10;99.90;;;;;;4952150;29;20039;-72
2021/06/20 20:00:31;;;;;;;6.50;4.00;;;21.00;99.90;;;;;;4951816;29;20027;-72
2021/06/20 20:02:56;;;;;;;;;;;21.00;99.90;;;;;;4952233;29;20078;-75
2021/06/20 20:05:23;;;;;;;5.03;3.92;;;20.90;99.90;;;;;;4951373;29;19910;-73
2021/06/20 20:07:49;;;;;;;5.00;3.63;;;20.80;99.90;;;;;;4952394;29;20063;-81
2021/06/20 20:10:18;;;;;;;7.20;4.25;;;20.80;99.90;;;;;;4951880;29;20023;-75
2021/06/20 20:12:44;;;;;;;5.57;3.53;;;20.80;99.90;;;;;;4952430;29;20040;-77
2021/06/20 20:15:12;;;;;;;5.95;4.03;;;20.80;99.90;;;;;;4952558;28;20028;-82
2021/06/20 20:17:38;;;;;;;8.15;4.15;;;20.70;99.90;;;;;;4951308;29;20059;-76
2021/06/20 20:20:10;;;;;;;10.45;4.57;;;20.70;99.90;;;;;;4952311;29;20054;-73
2021/06/20 20:22:37;;;;;;;8.13;4.03;;;20.60;99.90;;;;;;4952188;29;20152;-72
2021/06/20 20:25:04;;;;;;;5.57;3.50;;;20.60;99.90;;;;;;4951226;29;20023;-74
2021/06/20 20:27:30;;;;;;;6.50;4.05;;;20.50;99.90;;;;;;4953468;28;20053;-77
2021/06/20 20:29:55;;;;;;;7.35;4.43;;;20.60;99.90;;;;;;4970350;28;20098;-79
2021/06/20 20:32:22;;;;;;;4.55;3.50;;;20.50;99.90;;;;;;4971418;28;20042;-77
2021/06/20 20:34:49;;;;;;;5.78;4.38;;;20.50;99.90;;;;;;4958253;28;20023;-82
